Time;durP1;ratioP1;P1;durP2;ratioP2;P2;SDS_P1;SDS_P2;PMS_P1;PMS_P2;Temp;Humidity;BMP_temperature;BMP_pressure;BME280_temperature;BME280_humidity;BME280_pressure;Samples;Min_cycle;Max_cycle;Signal;HPM_P1;HPM_P2
2022/07/12 00:01:58;;;;;;;3.50;1.80;;;;;;;16.68;50.93;99634.16;4964067;28;20037;-92
2022/07/12 00:04:23;;;;;;;3.40;1.95;;;;;;;16.63;51.09;99637.00;4963799;28;20092;-93
2022/07/12 00:06:49;;;;;;;5.75;2.22;;;;;;;16.53;51.47;99641.50;4963914;28;20057;-94
2022/07/12 00:09:15;;;;;;;6.47;2.10;;;;;;;16.53;51.45;99654.28;4964386;28;20026;-92
2022/07/12 00:11:41;;;;;;;4.43;2.13;;;;;;;16.63;50.96;99650.59;4963900;28;20061;-92
2022/07/12 00:14:07;;;;;;;3.55;2.20;;;;;;;16.48;50.95;99632.66;4980534;28;20069;-92
2022/07/12 00:16:32;;;;;;;7.22;2.00;;;;;;;16.46;51.14;99643.03;4963905;28;20034;-92
2022/07/12 00:18:58;;;;;;;3.55;1.95;;;;;;;16.52;50.91;99660.84;4964350;28;20025;-92
2022/07/12 00:21:23;;;;;;;5.57;2.17;;;;;;;16.46;51.18;99664.78;4964005;28;20028;-93
2022/07/12 00:23:49;;;;;;;3.17;2.17;;;;;;;16.35;51.47;99639.66;4965230;28;20372;-93
2022/07/12 00:26:14;;;;;;;7.13;2.22;;;;;;;16.43;51.30;99649.84;4967952;28;20474;-93
2022/07/12 00:28:40;;;;;;;3.95;2.20;;;;;;;16.32;51.43;99640.28;4967842;28;20029;-93
2022/07/12 00:31:05;;;;;;;3.40;1.98;;;;;;;16.46;51.70;99660.13;4967684;28;20030;-92
2022/07/12 00:33:31;;;;;;;5.90;2.90;;;;;;;16.40;52.31;99649.66;4968851;28;20403;-92
2022/07/12 00:35:56;;;;;;;4.28;1.80;;;;;;;16.36;51.90;99655.69;4967743;28;20038;-92
2022/07/12 00:38:22;;;;;;;4.85;2.70;;;;;;;16.45;52.21;99657.72;4967803;28;20534;-93
2022/07/12 00:40:49;;;;;;;5.47;2.08;;;;;;;16.35;52.54;99648.66;4967621;28;20523;-92
2022/07/12 00:43:14;;;;;;;7.78;2.30;;;;;;;16.35;52.56;99654.09;4983847;28;20029;-93
2022/07/12 00:45:40;;;;;;;4.07;2.10;;;;;;;16.34;53.40;99657.09;4983808;28;20078;-93
2022/07/12 00:48:05;;;;;;;4.53;2.35;;;;;;;16.21;53.57;99639.66;4967324;28;20022;-93
2022/07/12 00:50:31;;;;;;;4.35;2.13;;;;;;;16.25;53.40;99654.28;4968024;28;20479;-92
2022/07/12 00:52:56;;;;;;;6.90;2.20;;;;;;;16.15;53.40;99649.00;4967424;28;20034;-93
2022/07/12 00:55:22;;;;;;;6.15;2.47;;;;;;;16.09;52.94;99631.19;4967268;28;20026;-93
2022/07/12 00:57:48;;;;;;;5.65;2.70;;;;;;;16.14;52.98;99648.22;4967374;28;20076;-92
2022/07/12 01:00:20;;;;;;;6.25;3.00;;;;;;;15.95;52.58;99637.38;4967601;28;20018;-92
2022/07/12 01:02:46;;;;;;;5.95;3.90;;;;;;;16.05;51.68;99660.06;4984285;28;20365;-92
2022/07/12 01:05:11;;;;;;;5.07;3.60;;;;;;;16.23;51.46;99661.09;4967268;28;20061;-93
2022/07/12 01:07:37;;;;;;;7.97;4.28;;;;;;;16.16;50.88;99662.31;4967180;28;20036;-92
2022/07/12 01:10:03;;;;;;;5.68;3.20;;;;;;;16.13;50.49;99635.72;4967108;28;20515;-93
2022/07/12 01:12:29;;;;;;;8.68;3.67;;;;;;;16.16;50.09;99637.03;4966928;28;20030;-93
2022/07/12 01:14:54;;;;;;;6.13;3.38;;;;;;;16.18;50.44;99642.97;4966727;28;20092;-92
2022/07/12 01:17:22;;;;;;;6.35;3.20;;;;;;;16.15;50.18;99633.50;4967332;28;20022;-93
2022/07/12 01:19:48;;;;;;;4.75;3.33;;;;;;;16.16;51.02;99637.84;4968267;28;20057;-93
2022/07/12 01:22:15;;;;;;;11.13;3.50;;;;;;;16.14;51.69;99650.09;4983140;28;20057;-92
2022/07/12 01:24:40;;;;;;;5.43;2.90;;;;;;;16.05;52.46;99638.31;4966350;28;20029;-91
2022/07/12 01:27:06;;;;;;;5.05;2.60;;;;;;;16.07;52.26;99631.47;4966831;28;20017;-93
2022/07/12 01:29:32;;;;;;;6.65;2.95;;;;;;;16.15;51.84;99638.94;4966539;28;20507;-93
2022/07/12 01:32:24;;;;;;;3.97;2.90;;;;;;;16.12;51.65;99636.84;4966619;28;20037;-92
2022/07/12 01:34:47;;;;;;;6.15;2.72;;;;;;;16.23;51.41;99655.66;4988587;28;20022;-92
2022/07/12 01:37:14;;;;;;;6.70;2.92;;;;;;;16.22;51.25;99645.91;4982274;28;20103;-92
2022/07/12 01:39:39;;;;;;;7.20;2.42;;;;;;;16.27;50.01;99645.78;4982775;28;20587;-92
2022/07/12 01:42:05;;;;;;;4.32;2.40;;;;;;;16.07;52.77;99645.06;4966222;28;20053;-93
2022/07/12 01:44:31;;;;;;;7.53;2.92;;;;;;;16.07;53.12;99642.34;4966678;28;20018;-93
2022/07/12 01:46:59;;;;;;;7.78;2.40;;;;;;;15.86;53.69;99622.09;4966700;28;20046;-94
2022/07/12 01:49:25;;;;;;;5.18;2.30;;;;;;;15.95;53.01;99631.94;4967033;28;20014;-93
2022/07/12 01:51:50;;;;;;;3.78;2.22;;;;;;;15.94;53.45;99646.66;4966268;28;20030;-94
2022/07/12 01:54:16;;;;;;;5.65;1.98;;;;;;;15.84;53.96;99635.16;4966544;28;20549;-93
2022/07/12 01:56:41;;;;;;;3.92;1.98;;;;;;;15.78;54.13;99641.75;4982300;28;20021;-93
2022/07/12 01:59:07;;;;;;;6.35;2.20;;;;;;;15.67;53.93;99625.59;4966275;28;20084;-93
2022/07/12 02:01:32;;;;;;;6.22;2.00;;;;;;;15.55;53.55;99617.91;4966669;28;20029;-92
2022/07/12 02:04:02;;;;;;;3.53;1.77;;;;;;;15.54;53.37;99638.03;4966394;28;20108;-95
2022/07/12 02:06:27;;;;;;;5.03;1.90;;;;;;;15.27;53.91;99610.75;4966619;28;20022;-94
2022/07/12 02:08:53;;;;;;;6.03;2.17;;;;;;;15.31;54.63;99626.13;4966316;28;20044;-94
2022/07/12 02:11:18;;;;;;;4.82;2.00;;;;;;;15.36;55.38;99641.56;4966172;28;20026;-94
2022/07/12 02:13:44;;;;;;;5.07;2.38;;;;;;;15.21;55.88;99625.47;4966345;28;20061;-93
2022/07/12 02:16:09;;;;;;;5.38;2.40;;;;;;;15.33;55.33;99636.69;4966302;28;20080;-93
2022/07/12 02:18:35;;;;;;;5.97;2.38;;;;;;;15.30;54.58;99637.31;4966061;28;20460;-94
2022/07/12 02:21:01;;;;;;;3.78;2.00;;;;;;;15.33;55.03;99642.13;4966832;28;20028;-92
2022/07/12 02:23:27;;;;;;;3.53;1.90;;;;;;;15.27;55.73;99643.28;4966679;28;20025;-93
2022/07/12 02:25:52;;;;;;;4.55;1.83;;;;;;;15.25;55.48;99640.06;4966180;28;20399;-93
2022/07/12 02:28:18;;;;;;;3.15;1.90;;;;;;;15.31;55.34;99653.25;4965553;28;20400;-93
2022/07/12 02:30:43;;;;;;;2.85;1.92;;;;;;;15.18;55.66;99648.56;4965515;28;20026;-92
2022/07/12 02:33:09;;;;;;;6.35;2.20;;;;;;;15.36;55.11;99658.63;4965517;28;20025;-92
2022/07/12 02:35:34;;;;;;;3.05;2.03;;;;;;;15.23;55.32;99634.13;4965423;28;20022;-92
2022/07/12 02:38:00;;;;;;;5.70;2.10;;;;;;;15.27;54.67;99633.28;4965443;28;20068;-92
2022/07/12 02:43:09;;;;;;;2.88;1.85;;;;;;;15.06;54.94;99630.00;4967566;28;20057;-92
2022/07/12 02:45:35;;;;;;;6.90;2.28;;;;;;;15.08;56.01;99646.00;4946307;28;20030;-95
2022/07/12 02:48:00;;;;;;;6.88;2.50;;;;;;;15.14;55.62;99642.13;4945611;28;20026;-94
2022/07/12 02:50:26;;;;;;;7.97;2.13;;;;;;;15.09;56.10;99640.28;4946008;28;20049;-93
2022/07/12 02:52:51;;;;;;;6.40;2.30;;;;;;;15.07;56.60;99653.34;4949303;28;20022;-94
2022/07/12 02:55:17;;;;;;;3.80;2.15;;;;;;;15.02;56.30;99639.81;4946413;28;20092;-94
2022/07/12 02:57:42;;;;;;;2.70;1.98;;;;;;;15.15;57.08;99660.81;4946035;28;20026;-94
2022/07/12 03:00:08;;;;;;;3.38;2.08;;;;;;;15.02;57.33;99656.09;4946822;28;20025;-93
2022/07/12 03:02:34;;;;;;;3.47;1.83;;;;;;;14.91;57.47;99644.56;4945927;28;20076;-93
2022/07/12 03:04:59;;;;;;;4.35;2.40;;;;;;;15.02;56.79;99649.88;4946905;28;20030;-93
2022/07/12 03:07:25;;;;;;;4.38;2.45;;;;;;;15.05;56.33;99660.94;4946165;28;20026;-93
2022/07/12 03:09:51;;;;;;;8.63;2.63;;;;;;;15.13;55.76;99659.50;4945313;28;20022;-93
2022/07/12 03:12:16;;;;;;;4.50;2.03;;;;;;;15.22;54.66;99654.22;4945684;28;20027;-94
2022/07/12 03:14:42;;;;;;;5.53;2.78;;;;;;;15.31;54.31;99666.03;4946220;28;20086;-92
2022/07/12 03:17:07;;;;;;;3.28;2.00;;;;;;;15.17;54.68;99657.81;4945546;28;20037;-92
2022/07/12 03:19:32;;;;;;;5.55;1.92;;;;;;;15.25;53.87;99661.78;4946229;28;20552;-92
2022/07/12 03:21:58;;;;;;;6.03;2.38;;;;;;;15.25;54.79;99659.06;4945400;28;20023;-93
2022/07/12 03:24:23;;;;;;;6.07;2.25;;;;;;;15.28;55.05;99666.63;4945429;28;20029;-93
2022/07/12 03:26:51;;;;;;;7.38;2.30;;;;;;;15.35;54.82;99667.84;4945863;28;20077;-93
2022/07/12 03:29:16;;;;;;;8.77;2.33;;;;;;;15.27;55.66;99641.41;4945622;28;20026;-92
2022/07/12 03:31:42;;;;;;;5.65;2.00;;;;;;;15.30;56.50;99665.22;4945447;28;20423;-93
2022/07/12 03:34:07;;;;;;;4.13;2.10;;;;;;;15.22;56.08;99641.47;4945728;28;20026;-94
2022/07/12 03:36:33;;;;;;;6.85;2.28;;;;;;;15.23;57.06;99664.78;4945583;28;20061;-93
2022/07/12 03:38:58;;;;;;;6.38;2.33;;;;;;;15.21;56.63;99660.75;4944842;28;20026;-93
2022/07/12 03:41:24;;;;;;;5.63;2.53;;;;;;;15.22;56.20;99670.50;4952710;28;20064;-94
2022/07/12 03:43:49;;;;;;;4.88;1.90;;;;;;;15.28;55.92;99664.72;4964431;28;20029;-93
2022/07/12 03:46:15;;;;;;;4.25;1.92;;;;;;;15.31;56.20;99663.31;4973910;28;20487;-96
2022/07/12 03:48:40;;;;;;;4.85;1.80;;;;;;;15.57;54.31;99688.19;4966833;28;20022;-96
2022/07/12 03:51:06;;;;;;;2.30;1.60;;;;;;;15.45;54.37;99664.19;4965205;28;20089;-95
2022/07/12 03:53:31;;;;;;;8.63;2.90;;;;;;;15.48;54.19;99669.06;4965068;28;20027;-94
2022/07/12 03:55:57;;;;;;;7.63;2.55;;;;;;;15.43;53.14;99655.53;4981238;28;20034;-96
2022/07/12 03:58:22;;;;;;;4.80;2.13;;;;;;;15.58;52.75;99670.78;4964945;28;20033;-96
2022/07/12 04:00:48;;;;;;;14.13;3.20;;;;;;;15.73;52.22;99675.25;4967306;28;20116;-95
2022/07/12 04:03:13;;;;;;;8.02;3.47;;;;;;;15.71;51.54;99651.06;4966604;28;20468;-95
2022/07/12 04:05:39;;;;;;;10.27;3.67;;;;;;;15.57;51.45;99661.84;4967394;28;20018;-94
2022/07/12 04:08:05;;;;;;;11.23;3.80;;;;;;;15.60;51.54;99660.44;4967785;28;20049;-93
2022/07/12 04:10:35;;;;;;;6.47;3.60;;;;;;;15.64;52.54;99657.97;4954149;28;20046;-96
2022/07/12 04:13:00;;;;;;;10.57;4.30;;;;;;;15.64;53.13;99660.69;4972953;28;20073;-95
2022/07/12 04:15:26;;;;;;;10.77;4.40;;;;;;;15.76;52.83;99680.06;4969912;28;20029;-96
2022/07/12 04:18:06;;;;;;;7.53;4.05;;;;;;;15.55;52.60;99655.13;4971738;28;20029;-96
2022/07/12 04:20:39;;;;;;;13.00;4.90;;;;;;;15.69;52.73;99674.19;4982505;28;20045;-96
2022/07/12 04:23:04;;;;;;;10.80;5.15;;;;;;;15.84;52.60;99695.69;4968772;28;20029;-95
2022/07/12 04:25:30;;;;;;;12.02;5.97;;;;;;;15.67;52.48;99679.09;4966026;28;20085;-96
2022/07/12 04:27:55;;;;;;;24.70;14.90;;;;;;;15.76;52.30;99690.94;4968149;28;20054;-95
2022/07/12 04:30:21;;;;;;;25.77;9.52;;;;;;;15.98;51.90;99703.06;4967453;28;20032;-96
2022/07/12 04:32:46;;;;;;;17.10;9.65;;;;;;;16.05;51.71;99698.09;4966330;28;20452;-95
2022/07/12 04:35:12;;;;;;;18.60;10.48;;;;;;;16.05;51.18;99688.00;4963810;28;20041;-95
2022/07/12 04:37:37;;;;;;;22.90;10.50;;;;;;;16.01;51.33;99687.00;4964221;28;20033;-94
2022/07/12 04:40:03;;;;;;;18.40;8.63;;;;;;;16.22;49.92;99697.53;4965154;28;20041;-94
2022/07/12 04:42:29;;;;;;;24.95;8.25;;;;;;;16.23;49.99;99671.94;4966138;28;20053;-95
2022/07/12 04:44:55;;;;;;;13.65;7.32;;;;;;;16.36;50.06;99679.34;4965166;28;20507;-96
2022/07/12 04:47:20;;;;;;;12.98;6.13;;;;;;;16.48;49.28;99679.66;4964825;28;20096;-96
2022/07/12 04:49:46;;;;;;;18.10;5.97;;;;;;;16.51;49.29;99678.25;4965175;28;20026;-94
2022/07/12 04:52:11;;;;;;;10.32;4.75;;;;;;;16.61;49.81;99699.00;4982088;28;20026;-94
2022/07/12 04:54:37;;;;;;;9.02;4.75;;;;;;;16.80;50.08;99691.56;4963681;28;20085;-92
2022/07/12 04:57:02;;;;;;;13.85;5.20;;;;;;;16.82;48.61;99691.31;4963354;28;20033;-92
2022/07/12 04:59:28;;;;;;;9.18;4.35;;;;;;;17.03;49.00;99691.69;4964445;28;20030;-94
2022/07/12 05:01:54;;;;;;;13.15;3.30;;;;;;;17.01;48.33;99685.75;4997590;28;20029;-96
2022/07/12 05:04:19;;;;;;;8.93;3.38;;;;;;;17.07;48.40;99690.78;4963806;28;20033;-95
2022/07/12 05:06:47;;;;;;;9.45;3.15;;;;;;;17.24;47.66;99692.06;4964589;28;20029;-93
2022/07/12 05:09:16;;;;;;;4.97;2.58;;;;;;;17.36;48.31;99706.75;4964599;28;20034;-92
2022/07/12 05:11:42;;;;;;;7.75;2.58;;;;;;;17.20;48.03;99674.75;4965792;28;20032;-95
2022/07/12 05:14:26;;;;;;;8.88;2.60;;;;;;;17.29;47.71;99675.66;4978946;28;20093;-96
2022/07/12 05:27:00;;;;;;;5.68;2.10;;;;;;;18.33;44.48;99675.63;5027115;28;20121;-92
2022/07/12 05:29:28;;;;;;;5.00;1.60;;;;;;;18.47;42.43;99673.63;4969666;28;20486;-96
2022/07/12 05:35:20;;;;;;;8.23;1.95;;;;;;;18.78;42.93;99670.91;5010251;28;20045;-96
2022/07/12 05:37:58;;;;;;;;;;;;;;;;;;;;;
2022/07/12 05:41:10;;;;;;;19.60;10.30;;;;;;;19.16;41.35;99664.88;4983946;28;20032;-94
2022/07/12 05:43:53;;;;;;;10.32;2.35;;;;;;;19.52;41.23;99696.56;4929084;28;20043;-95
2022/07/12 05:46:21;;;;;;;9.70;2.22;;;;;;;19.47;40.98;99679.56;4988525;28;20030;-93
2022/07/12 05:48:47;;;;;;;6.53;2.13;;;;;;;19.75;39.86;99699.97;4985379;28;20032;-94
2022/07/12 05:53:56;;;;;;;8.20;1.38;;;;;;;19.98;39.17;99683.41;4989506;28;20099;-94
2022/07/12 05:56:21;;;;;;;3.30;1.70;;;;;;;19.92;39.35;99687.44;4984659;28;20412;-93
2022/07/12 05:58:50;;;;;;;3.10;1.08;;;;;;;19.94;38.70;99696.94;4969701;28;20030;-92
2022/07/12 06:01:19;;;;;;;7.90;3.15;;;;;;;19.91;39.59;99674.91;4984188;28;20125;-91
2022/07/12 06:03:44;;;;;;;4.13;1.38;;;;;;;19.97;38.44;99676.34;4968304;28;20033;-92
2022/07/12 06:06:13;;;;;;;9.45;1.45;;;;;;;20.06;39.09;99674.38;4986027;28;20049;-96
2022/07/12 06:08:46;;;;;;;5.85;1.13;;;;;;;20.25;38.23;99675.97;4988543;28;20484;-95
2022/07/12 06:11:15;;;;;;;4.68;1.15;;;;;;;20.29;37.58;99664.03;4991376;28;20030;-94
2022/07/12 06:13:51;;;;;;;6.78;1.30;;;;;;;20.39;37.37;99682.03;4985923;28;20033;-94
2022/07/12 06:16:19;;;;;;;7.43;1.25;;;;;;;20.29;37.52;99665.97;4991838;28;20033;-93
2022/07/12 06:18:44;;;;;;;4.55;1.50;;;;;;;20.41;37.98;99671.56;4993437;28;20021;-93
2022/07/12 06:21:38;;;;;;;6.70;1.40;;;;;;;20.67;38.56;99682.47;4984634;28;20029;-93
2022/07/12 06:24:04;;;;;;;5.82;1.75;;;;;;;20.57;38.70;99658.97;4999581;28;20022;-94
2022/07/12 06:26:33;;;;;;;7.75;1.98;;;;;;;20.69;38.69;99665.69;4982698;28;20026;-93
2022/07/12 06:28:58;;;;;;;5.43;2.63;;;;;;;20.93;37.32;99681.53;4967129;28;20026;-93
2022/07/12 06:31:27;;;;;;;4.47;1.75;;;;;;;21.08;37.92;99689.16;4965897;28;20034;-94
2022/07/12 06:33:52;;;;;;;4.85;1.60;;;;;;;20.94;37.47;99655.78;4968435;28;20033;-92
2022/07/12 06:36:18;;;;;;;8.73;1.50;;;;;;;21.13;36.95;99650.66;4967985;28;20128;-93
2022/07/12 06:38:51;;;;;;;6.88;1.52;;;;;;;21.19;36.24;99665.75;4967072;28;20060;-94
2022/07/12 06:41:17;;;;;;;6.78;1.65;;;;;;;21.26;36.49;99673.44;4960432;28;20073;-95
2022/07/12 06:43:45;;;;;;;4.10;1.48;;;;;;;21.34;37.50;99661.63;4947734;28;20133;-89
2022/07/12 06:46:11;;;;;;;4.22;1.20;;;;;;;21.44;35.96;99671.41;4974303;28;20026;-94
2022/07/12 06:48:45;;;;;;;6.18;1.20;;;;;;;21.39;36.07;99674.31;4965913;28;20046;-93
2022/07/12 06:51:10;;;;;;;4.53;1.20;;;;;;;21.54;36.25;99673.75;4982551;28;20108;-91
2022/07/12 06:53:41;;;;;;;6.97;2.25;;;;;;;21.45;37.92;99664.78;4962408;28;20019;-96
2022/07/12 06:58:53;;;;;;;2.78;1.17;;;;;;;21.64;34.62;99666.25;4980491;28;20118;-90
2022/07/12 07:01:18;;;;;;;7.78;2.85;;;;;;;21.76;34.77;99683.53;4978595;28;20157;-90
2022/07/12 07:03:43;;;;;;;7.53;2.25;;;;;;;21.80;35.03;99680.94;4956363;28;20042;-91
2022/07/12 07:06:09;;;;;;;18.30;5.28;;;;;;;21.73;34.14;99667.00;4964082;28;20037;-91
2022/07/12 07:08:38;;;;;;;3.53;1.52;;;;;;;21.84;33.20;99678.34;4977266;28;20017;-90
2022/07/12 07:11:04;;;;;;;3.72;1.15;;;;;;;21.93;33.37;99693.53;4965515;28;20121;-91
2022/07/12 07:13:29;;;;;;;6.43;1.80;;;;;;;21.88;33.52;99682.00;4997805;28;20103;-90
2022/07/12 07:16:06;;;;;;;6.57;3.60;;;;;;;21.90;33.06;99677.78;4981416;28;20136;-93
2022/07/12 07:18:35;;;;;;;4.40;1.40;;;;;;;21.67;33.41;99687.50;4982629;28;20018;-92
2022/07/12 07:21:04;;;;;;;15.93;12.32;;;;;;;21.74;33.67;99683.06;4965487;28;20021;-92
2022/07/12 07:23:39;;;;;;;5.28;1.42;;;;;;;21.78;33.31;99667.56;4964802;28;20453;-91
2022/07/12 07:26:07;;;;;;;6.60;2.35;;;;;;;21.97;34.78;99694.47;4961828;28;20033;-91
2022/07/12 07:30:51;;;;;;;6.82;2.13;;;;;;;21.95;34.45;99674.03;4961536;28;20034;-90
2022/07/12 07:31:25;;;;;;;4.90;1.10;;;;;;;22.09;33.53;99688.25;4973591;28;20030;-95
2022/07/12 07:34:04;;;;;;;3.20;1.23;;;;;;;22.11;33.04;99675.00;4946337;28;20026;-94
2022/07/12 07:36:43;;;;;;;2.97;1.00;;;;;;;22.20;33.21;99680.38;4946183;28;20018;-93
2022/07/12 07:50:20;;;;;;;;;;;;;;;;;;;;;
2022/07/12 07:52:58;;;;;;;4.43;1.58;;;;;;;22.67;33.85;99671.03;5004453;28;20124;-93
2022/07/12 07:55:34;;;;;;;3.10;1.38;;;;;;;22.74;32.65;99691.28;4989043;28;20097;-93
2022/07/12 07:58:20;;;;;;;3.40;1.10;;;;;;;22.64;33.36;99688.16;4988034;28;20033;-95
2022/07/12 08:00:50;;;;;;;4.47;1.20;;;;;;;22.67;32.60;99688.28;4965210;28;20062;-94
2022/07/12 08:03:42;;;;;;;3.83;1.10;;;;;;;22.64;33.09;99678.00;4941934;28;20042;-95
2022/07/12 08:06:10;;;;;;;4.88;1.60;;;;;;;22.69;33.29;99685.19;4955486;28;20142;-94
2022/07/12 08:08:58;;;;;;;2.05;1.08;;;;;;;22.71;32.76;99666.44;4948109;28;20019;-95
2022/07/12 08:11:27;;;;;;;14.25;2.63;;;;;;;22.83;33.65;99671.13;4964476;28;20094;-94
2022/07/12 08:14:15;;;;;;;;;;;;;;;;;;;;;
2022/07/12 08:16:49;;;;;;;2.67;1.02;;;;;;;22.96;32.44;99676.28;4954575;28;20160;-93
2022/07/12 08:19:14;;;;;;;3.10;1.15;;;;;;;23.05;32.26;99673.44;4958070;28;20047;-92
2022/07/12 08:21:40;;;;;;;3.38;1.00;;;;;;;23.09;32.34;99679.03;4926291;28;20078;-93
2022/07/12 08:24:06;;;;;;;3.53;1.30;;;;;;;23.15;32.27;99666.69;4927029;28;20039;-95
2022/07/12 08:26:34;;;;;;;4.15;1.30;;;;;;;23.26;32.73;99656.00;4944501;28;20039;-92
2022/07/12 08:29:00;;;;;;;3.90;1.60;;;;;;;23.45;31.51;99675.44;4944396;28;20023;-91
2022/07/12 08:31:37;;;;;;;6.43;1.70;;;;;;;23.39;31.58;99665.84;4951700;28;20077;-95
2022/07/12 08:34:29;;;;;;;3.95;2.08;;;;;;;23.60;32.10;99685.69;4986305;28;20097;-95
2022/07/12 08:37:01;;;;;;;5.43;1.35;;;;;;;23.59;31.57;99675.88;4958438;28;20029;-95
2022/07/12 08:40:06;;;;;;;;;;;;;;;;;;;;;
2022/07/12 08:42:42;;;;;;;2.85;1.50;;;;;;;23.72;31.76;99654.63;5007548;28;20133;-96
2022/07/12 08:45:51;;;;;;;3.50;1.27;;;;;;;23.91;31.67;99667.75;4977197;28;20041;-96
2022/07/12 08:48:30;;;;;;;2.50;1.40;;;;;;;24.02;31.21;99650.72;5012118;28;20006;-96
2022/07/12 08:51:48;;;;;;;;;;;;;;;;;;;;;
2022/07/12 08:54:26;;;;;;;4.38;1.20;;;;;;;23.76;30.77;99663.81;5031525;28;20050;-95
2022/07/12 08:56:55;;;;;;;2.50;1.00;;;;;;;23.52;30.67;99656.41;4984636;28;20488;-96
2022/07/12 08:59:34;;;;;;;5.07;2.40;;;;;;;23.51;30.57;99643.00;4978718;28;20013;-96
2022/07/12 09:02:15;;;;;;;3.45;1.00;;;;;;;23.44;30.66;99649.09;4982797;28;20021;-95
2022/07/12 09:05:07;;;;;;;4.18;1.00;;;;;;;23.48;30.64;99641.75;4994729;28;20030;-95
2022/07/12 09:07:35;;;;;;;3.88;1.30;;;;;;;23.57;30.81;99645.16;4992280;28;20026;-91
2022/07/12 09:10:12;;;;;;;3.05;1.20;;;;;;;23.63;30.80;99642.94;4970525;28;20018;-93
2022/07/12 09:12:44;;;;;;;7.68;1.55;;;;;;;23.86;31.85;99642.44;4986221;28;20069;-93
2022/07/12 09:15:22;;;;;;;0.98;0.85;;;;;;;24.03;30.17;99658.63;4989728;28;20021;-92
2022/07/12 09:18:38;;;;;;;;;;;;;;;;;;;;;
2022/07/12 09:21:15;;;;;;;2.35;1.13;;;;;;;24.37;29.61;99635.13;5021675;28;20559;-96
2022/07/12 09:24:00;;;;;;;4.35;1.08;;;;;;;24.29;29.46;99636.09;4991606;28;20036;-92
2022/07/12 09:27:18;;;;;;;4.95;1.20;;;;;;;24.13;29.31;99635.28;4975332;28;20022;-96
2022/07/12 09:29:48;;;;;;;2.67;1.30;;;;;;;24.06;29.89;99626.88;4966861;28;20062;-94
2022/07/12 09:37:46;;;;;;;4.22;1.35;;;;;;;24.32;30.11;99638.16;4991023;28;20064;-93
2022/07/12 09:40:12;;;;;;;3.63;1.27;;;;;;;24.04;30.31;99631.91;4985067;28;20030;-92
2022/07/12 09:42:53;;;;;;;4.38;1.30;;;;;;;23.90;30.33;99635.06;4969657;28;20427;-93
2022/07/12 09:45:19;;;;;;;6.53;1.30;;;;;;;24.01;30.20;99636.19;4970462;28;20029;-93
2022/07/12 09:48:31;;;;;;;2.65;1.25;;;;;;;24.12;30.16;99618.00;4976470;28;20030;-95
2022/07/12 09:50:57;;;;;;;2.25;1.10;;;;;;;24.16;30.03;99613.38;4975735;28;20048;-92
2022/07/12 09:53:42;;;;;;;1.90;1.30;;;;;;;24.48;30.01;99643.66;4974906;28;20032;-94
2022/07/12 09:56:16;;;;;;;2.80;1.20;;;;;;;24.53;29.61;99637.09;4976609;28;20086;-92
2022/07/12 09:58:52;;;;;;;2.95;1.10;;;;;;;24.50;29.29;99630.38;4976839;28;20034;-95
2022/07/12 10:01:17;;;;;;;3.63;1.10;;;;;;;24.52;29.17;99644.56;4972204;28;20029;-93
2022/07/12 10:03:46;;;;;;;2.55;1.10;;;;;;;24.50;28.95;99632.31;4969462;28;20599;-91
2022/07/12 10:06:12;;;;;;;4.28;1.10;;;;;;;24.74;28.57;99645.13;4969369;28;20476;-94
2022/07/12 10:08:44;;;;;;;2.83;1.10;;;;;;;24.77;28.47;99619.59;4969348;28;20030;-95
2022/07/12 10:11:22;;;;;;;7.00;2.05;;;;;;;24.94;29.90;99618.41;4971673;28;20056;-94
2022/07/12 10:13:48;;;;;;;3.72;1.10;;;;;;;24.96;27.98;99616.88;5006551;28;20030;-92
2022/07/12 10:16:14;;;;;;;3.08;1.02;;;;;;;24.84;27.65;99618.97;4974685;28;20034;-93
2022/07/12 10:18:40;;;;;;;7.50;1.23;;;;;;;24.87;28.39;99626.50;4980846;28;20025;-92
2022/07/12 10:21:24;;;;;;;4.13;1.60;;;;;;;25.09;27.70;99620.34;4973393;28;20397;-95
2022/07/12 10:23:50;;;;;;;4.47;1.40;;;;;;;25.27;28.03;99597.88;4986122;28;20034;-92
2022/07/12 10:26:19;;;;;;;2.28;1.75;;;;;;;25.42;27.69;99613.56;4980892;28;20034;-94
2022/07/12 10:29:04;;;;;;;2.80;0.93;;;;;;;25.41;27.26;99606.44;5019085;28;20037;-91
2022/07/12 10:31:49;;;;;;;;;;;;;;;;;;;;;
2022/07/12 10:34:29;;;;;;;4.82;1.02;;;;;;;25.68;26.79;99623.13;4999944;28;20081;-90
2022/07/12 10:37:04;;;;;;;4.78;1.17;;;;;;;25.66;27.29;99615.22;5002428;28;20029;-92
2022/07/12 10:39:33;;;;;;;2.35;1.10;;;;;;;25.61;26.98;99601.75;5025051;28;20028;-94
2022/07/12 10:42:05;;;;;;;8.15;1.98;;;;;;;25.87;26.72;99623.09;5011803;28;20512;-92
2022/07/12 10:44:34;;;;;;;;;;;;;;;25.84;25.15;99625.78;5009058;28;20029;-95
2022/07/12 10:47:00;;;;;;;;;;;;;;;25.80;25.30;99629.28;5008061;28;19917;-94
2022/07/12 10:49:52;;;;;;;;;;;;;;;25.77;25.32;99616.25;4996668;28;19980;-96
2022/07/12 10:52:18;;;;;;;;;;;;;;;25.78;26.18;99622.56;5028940;28;19917;-92
2022/07/12 10:54:59;;;;;;;;;;;;;;;25.84;26.23;99625.78;5006151;28;19913;-94
2022/07/12 10:58:14;;;;;;;;;;;;;;;;;;;;;
2022/07/12 11:07:32;;;;;;;;;;;;;;;26.07;25.12;99620.34;4922096;29;19933;-96
2022/07/12 11:10:07;;;;;;;;;;;;;;;25.89;24.97;99617.22;4929499;29;19918;-95
2022/07/12 11:12:34;;;;;;;;;;;;;;;25.93;25.57;99618.91;4930765;29;20013;-96
2022/07/12 11:15:03;;;;;;;;;;;;;;;25.82;25.33;99617.91;4931536;29;19911;-95
2022/07/12 11:17:44;;;;;;;;;;;;;;;25.79;24.72;99610.34;4925530;29;19950;-95
2022/07/12 11:20:29;;;;;;;;;;;;;;;25.94;25.44;99606.72;4926663;29;20009;-95
2022/07/12 11:23:03;;;;;;;;;;;;;;;26.09;23.41;99607.00;4909872;29;19911;-95
2022/07/12 11:25:29;;;;;;;;;;;;;;;26.23;23.64;99601.72;4886989;29;19967;-94
2022/07/12 11:28:05;;;;;;;;;;;;;;;26.21;23.99;99606.81;4899559;29;20369;-94
2022/07/12 11:30:54;;;;;;;;;;;;;;;26.23;23.72;99617.47;4921432;29;19911;-95
2022/07/12 11:33:39;;;;;;;;;;;;;;;25.86;23.59;99606.91;4952335;29;19911;-96
2022/07/12 11:36:21;;;;;;;;;;;;;;;;;;;;;
2022/07/12 11:39:35;;;;;;;;;;;;;;;26.40;23.97;99609.50;4876551;29;20007;-93
2022/07/12 11:42:17;;;;;;;;;;;;;;;26.53;22.27;99599.03;5335999;23;19920;-96
2022/07/12 11:44:46;;;;;;;;;;;;;;;26.67;23.06;99592.97;4949816;29;19922;-93
2022/07/12 11:47:15;;;;;;;;;;;;;;;26.72;22.08;99587.13;4940631;29;20017;-92
2022/07/12 11:49:50;;;;;;;;;;;;;;;26.78;22.48;99593.91;4918356;29;19918;-94
2022/07/12 11:52:24;;;;;;;;;;;;;;;26.69;21.92;99601.69;4925956;29;19910;-94
2022/07/12 11:54:50;;;;;;;;;;;;;;;26.78;21.86;99595.88;4940309;29;20469;-91
2022/07/12 11:57:42;;;;;;;;;;;;;;;26.92;21.71;99603.59;4927296;29;19921;-94
2022/07/12 12:00:17;;;;;;;;;;;;;;;26.77;22.13;99608.91;4926258;29;19910;-91
2022/07/12 12:02:46;;;;;;;;;;;;;;;26.51;22.41;99609.66;4925470;29;19915;-95
2022/07/12 12:05:13;;;;;;;;;;;;;;;26.25;22.62;99612.38;4941349;29;19910;-92
2022/07/12 12:07:39;;;;;;;;;;;;;;;26.13;22.79;99603.13;4927831;29;19910;-92
2022/07/12 12:10:06;;;;;;;;;;;;;;;26.24;22.87;99608.03;4974790;28;19924;-91
2022/07/12 12:12:41;;;;;;;;;;;;;;;26.37;22.31;99603.91;4979889;28;19909;-94
2022/07/12 12:15:11;;;;;;;;;;;;;;;26.37;23.23;99595.63;4982006;28;19909;-94
2022/07/12 12:17:36;;;;;;;;;;;;;;;26.35;22.13;99595.97;4981718;28;19913;-95
2022/07/12 12:20:09;;;;;;;;;;;;;;;26.60;24.47;99598.38;4982992;28;20322;-94
2022/07/12 12:22:40;;;;;;;;;;;;;;;26.62;21.07;99601.56;4985055;28;19909;-96
2022/07/12 12:25:13;;;;;;;;;;;;;;;26.78;21.06;99593.91;4990397;28;19913;-94
2022/07/12 12:27:45;;;;;;;;;;;;;;;26.90;20.78;99586.59;5003611;28;19983;-95
2022/07/12 12:30:13;;;;;;;;;;;;;;;26.89;20.53;99582.22;4985389;28;19963;-94
2022/07/12 12:32:57;;;;;;;;;;;;;;;26.84;21.23;99588.09;4984401;28;19909;-93
2022/07/12 12:35:54;;;;;;;;;;;;;;;26.71;21.03;99587.47;5000724;28;19976;-94
2022/07/12 12:38:26;;;;;;;;;;;;;;;26.65;20.58;99584.25;4998330;28;20287;-96
2022/07/12 12:41:27;;;;;;;;;;;;;;;;;;;;;
2022/07/12 12:44:17;;;;;;;;;;;;;;;26.48;21.42;99582.78;4989365;28;19969;-94
2022/07/12 12:49:51;;;;;;;;;;;;;;;26.57;21.53;99588.06;4986473;28;19977;-93
2022/07/12 12:52:17;;;;;;;;;;;;;;;26.59;20.77;99589.28;4981824;28;19909;-95
2022/07/12 12:54:45;;;;;;;;;;;;;;;26.64;21.13;99587.38;4963786;28;20302;-95
2022/07/12 12:57:13;;;;;;;;;;;;;;;26.85;20.98;99573.09;4965676;28;19910;-94
2022/07/12 12:59:47;;;;;;;;;;;;;;;27.01;21.14;99582.00;4963536;28;19910;-94
2022/07/12 13:02:18;;;;;;;;;;;;;;;26.97;20.69;99581.16;4979304;28;19910;-93
2022/07/12 13:04:47;;;;;;;;;;;;;;;27.07;20.93;99576.94;4963184;28;19910;-93